sensor_id;sensor_type;location;lat;lon;timestamp;pressure;altitude;pressure_sealevel;temperature;humidity
69593;BME280;56796;50.122;14.468;2024-01-30T00:33:34;996.76;;;-2.95;100
69593;BME280;56796;50.122;14.468;2024-01-30T00:52:59;996.69;;;-3.06;100
69593;BME280;56796;50.122;14.468;2024-01-30T01:12:25;996.59;;;-3.12;100
69593;BME280;56796;50.122;14.468;2024-01-30T01:31:53;996.54;;;-3.13;100
69593;BME280;56796;50.122;14.468;2024-01-30T01:51:16;996.61;;;-2.99;100
69593;BME280;56796;50.122;14.468;2024-01-30T02:10:42;996.58;;;-2.92;100
69593;BME280;56796;50.122;14.468;2024-01-30T02:30:08;996.58;;;-3.21;100
69593;BME280;56796;50.122;14.468;2024-01-30T02:49:32;996.46;;;-3.46;100
69593;BME280;56796;50.122;14.468;2024-01-30T03:08:57;996.48;;;-3.64;100
69593;BME280;56796;50.122;14.468;2024-01-30T03:28:25;996.29;;;-3.77;100
69593;BME280;56796;50.122;14.468;2024-01-30T03:47:49;996.23;;;-3.72;100
69593;BME280;56796;50.122;14.468;2024-01-30T04:07:15;996.05;;;-3.77;100
69593;BME280;56796;50.122;14.468;2024-01-30T04:26:41;996.11;;;-3.5;100
69593;BME280;56796;50.122;14.468;2024-01-30T04:46:07;996.2;;;-3.87;100
69593;BME280;56796;50.122;14.468;2024-01-30T05:05:32;996.23;;;-3.84;100
69593;BME280;56796;50.122;14.468;2024-01-30T05:24:58;996.31;;;-3.85;100
69593;BME280;56796;50.122;14.468;2024-01-30T05:44:22;996.25;;;-3.83;100
69593;BME280;56796;50.122;14.468;2024-01-30T06:03:51;996.23;;;-3.81;100
69593;BME280;56796;50.122;14.468;2024-01-30T06:23:13;996.19;;;-3.77;100
69593;BME280;56796;50.122;14.468;2024-01-30T06:42:39;996.42;;;-3.84;100
69593;BME280;56796;50.122;14.468;2024-01-30T07:02:08;996.52;;;-3.93;100
69593;BME280;56796;50.122;14.468;2024-01-30T07:21:35;996.53;;;-3.63;100
69593;BME280;56796;50.122;14.468;2024-01-30T07:41:00;996.67;;;-3.45;100
69593;BME280;56796;50.122;14.468;2024-01-30T08:00:23;996.75;;;-3.21;100
69593;BME280;56796;50.122;14.468;2024-01-30T08:19:52;996.67;;;-2.75;100
69593;BME280;56796;50.122;14.468;2024-01-30T08:39:19;996.67;;;-2.41;100
69593;BME280;56796;50.122;14.468;2024-01-30T08:58:45;996.61;;;-2.19;100
69593;BME280;56796;50.122;14.468;2024-01-30T09:18:12;996.49;;;-1.44;100
69593;BME280;56796;50.122;14.468;2024-01-30T09:37:31;996.61;;;-1.02;100
69593;BME280;56796;50.122;14.468;2024-01-30T09:56:59;996.58;;;-0.88;100
69593;BME280;56796;50.122;14.468;2024-01-30T10:16:25;996.47;;;-0.5;100
69593;BME280;56796;50.122;14.468;2024-01-30T10:35:51;996.35;;;-0.32;100
69593;BME280;56796;50.122;14.468;2024-01-30T10:55:21;996.17;;;-0.18;100
69593;BME280;56796;50.122;14.468;2024-01-30T11:14:47;996;;;-0.15;100
69593;BME280;56796;50.122;14.468;2024-01-30T11:34:11;995.97;;;-0.01;100
69593;BME280;56796;50.122;14.468;2024-01-30T11:53:41;995.79;;;0.12;99.44
69593;BME280;56796;50.122;14.468;2024-01-30T12:13:03;995.54;;;0.27;98.93
69593;BME280;56796;50.122;14.468;2024-01-30T12:32:28;995.43;;;0.2;98.08
69593;BME280;56796;50.122;14.468;2024-01-30T12:51:58;995.28;;;-0.04;98.06
69593;BME280;56796;50.122;14.468;2024-01-30T13:11:22;995.31;;;0.18;97.95
69593;BME280;56796;50.122;14.468;2024-01-30T13:30:49;995.22;;;0.48;97.53
69593;BME280;56796;50.122;14.468;2024-01-30T13:50:12;995.02;;;0.64;96.33
69593;BME280;56796;50.122;14.468;2024-01-30T14:09:41;995.05;;;0.62;95.88
69593;BME280;56796;50.122;14.468;2024-01-30T14:29:04;994.93;;;0.58;95.56
69593;BME280;56796;50.122;14.468;2024-01-30T14:48:34;994.85;;;0.77;95.51
69593;BME280;56796;50.122;14.468;2024-01-30T15:07:56;994.82;;;0.62;95.6
69593;BME280;56796;50.122;14.468;2024-01-30T15:27:25;994.83;;;0.54;96.12
69593;BME280;56796;50.122;14.468;2024-01-30T15:46:48;994.96;;;0.4;96.63
69593;BME280;56796;50.122;14.468;2024-01-30T16:06:13;995.09;;;0.27;97.27
69593;BME280;56796;50.122;14.468;2024-01-30T16:25:40;995.13;;;0.17;97.61
69593;BME280;56796;50.122;14.468;2024-01-30T16:45:04;995.18;;;0.13;97.78
69593;BME280;56796;50.122;14.468;2024-01-30T17:04:27;995.11;;;0.1;98.24
69593;BME280;56796;50.122;14.468;2024-01-30T17:23:59;995.23;;;0.12;98.56
69593;BME280;56796;50.122;14.468;2024-01-30T17:43:18;995.32;;;0.13;98.66
69593;BME280;56796;50.122;14.468;2024-01-30T18:02:41;995.29;;;0.14;98.73
69593;BME280;56796;50.122;14.468;2024-01-30T18:22:11;995.2;;;0.19;98.61
69593;BME280;56796;50.122;14.468;2024-01-30T18:41:37;995.13;;;0.15;98.66
69593;BME280;56796;50.122;14.468;2024-01-30T19:01:03;995.11;;;0.13;98.71
69593;BME280;56796;50.122;14.468;2024-01-30T19:20:25;995.15;;;0.19;98.56
69593;BME280;56796;50.122;14.468;2024-01-30T19:39:51;995.23;;;0.16;98.47
69593;BME280;56796;50.122;14.468;2024-01-30T19:59:16;995.14;;;0.04;98.68
69593;BME280;56796;50.122;14.468;2024-01-30T20:18:41;995.15;;;0;98.54
69593;BME280;56796;50.122;14.468;2024-01-30T20:38:07;995.16;;;-0.15;99.06
69593;BME280;56796;50.122;14.468;2024-01-30T20:57:31;995.03;;;-0.1;99.33
69593;BME280;56796;50.122;14.468;2024-01-30T21:16:57;995.16;;;-0.05;99.55
69593;BME280;56796;50.122;14.468;2024-01-30T21:36:24;994.98;;;0.03;99.4
69593;BME280;56796;50.122;14.468;2024-01-30T21:55:50;994.86;;;-0.06;99.41
69593;BME280;56796;50.122;14.468;2024-01-30T22:15:16;994.85;;;-0.04;99.3
69593;BME280;56796;50.122;14.468;2024-01-30T22:34:42;995.04;;;-0.12;99.32
69593;BME280;56796;50.122;14.468;2024-01-30T22:54:08;995.14;;;-0.05;99.33
69593;BME280;56796;50.122;14.468;2024-01-30T23:13:33;995.15;;;-0.02;99.25
69593;BME280;56796;50.122;14.468;2024-01-30T23:32:58;995.2;;;-0.03;99.34
69593;BME280;56796;50.122;14.468;2024-01-30T23:52:24;995.31;;;0.08;99.4
